Time;durP1;ratioP1;P1;durP2;ratioP2;P2;SDS_P1;SDS_P2;PMS_P1;PMS_P2;Temp;Humidity;BMP_temperature;BMP_pressure;BME280_temperature;BME280_humidity;BME280_pressure;Samples;Min_cycle;Max_cycle;Signal;HPM_P1;HPM_P2
2023/12/07 06:14:02;;;;;;;15.17;5.43;;;;;;;;;;5254848;23;20047;-85
2023/12/07 06:16:27;;;;;;;18.93;6.00;;;;;;;;;;4953092;28;20114;-84
2023/12/07 06:18:53;;;;;;;16.27;6.43;;;;;;;;;;4956273;28;20114;-83
2023/12/07 06:21:18;;;;;;;16.37;5.77;;;;;;;;;;4953001;28;20024;-85
2023/12/07 06:23:46;;;;;;;10.37;4.03;;;;;;;;;;4945881;29;20477;-84
2023/12/07 06:26:11;;;;;;;8.63;3.57;;;;;;;;;;4951097;29;20073;-84
2023/12/07 06:28:37;;;;;;;9.00;4.23;;;;;;;;;;4954996;28;20024;-84
2023/12/07 06:31:06;;;;;;;12.70;4.30;;;;;;;;;;4952352;28;20097;-84
2023/12/07 06:33:32;;;;;;;8.50;3.53;;;;;;;;;;4948435;28;20042;-84
2023/12/07 06:35:57;;;;;;;13.32;4.60;;;;;;;;;;4952246;28;20024;-84
2023/12/07 06:38:22;;;;;;;14.23;4.73;;;;;;;;;;4952331;29;20026;-84
2023/12/07 06:40:47;;;;;;;10.73;4.65;;;;;;;;;;4952417;28;20027;-85
2023/12/07 06:43:14;;;;;;;10.03;4.93;;;;;;;;;;4953402;28;20118;-86
2023/12/07 06:45:39;;;;;;;7.63;3.10;;;;;;;;;;4959363;28;20094;-85
2023/12/07 06:48:04;;;;;;;11.32;4.80;;;;;;;;;;4951414;29;20027;-82
2023/12/07 06:50:29;;;;;;;13.55;4.38;;;;;;;;;;4948943;28;20019;-84
2023/12/07 06:52:55;;;;;;;13.18;5.10;;;;;;;;;;4949794;28;20046;-84
2023/12/07 06:55:22;;;;;;;9.77;4.18;;;;;;;;;;4951636;29;20422;-85
2023/12/07 06:57:47;;;;;;;11.02;4.47;;;;;;;;;;4950539;29;20413;-86
2023/12/07 07:00:13;;;;;;;10.00;4.82;;;;;;;;;;4959457;28;20035;-85
2023/12/07 07:02:39;;;;;;;16.65;6.18;;;;;;;;;;4947671;28;20141;-84
2023/12/07 07:05:05;;;;;;;10.13;4.72;;;;;;;;;;4954271;28;20454;-84
2023/12/07 07:07:31;;;;;;;10.07;4.50;;;;;;;;;;4955279;28;20213;-85
2023/12/07 07:09:57;;;;;;;10.75;4.97;;;;;;;;;;4954905;28;20098;-85
2023/12/07 07:12:22;;;;;;;9.15;3.13;;;;;;;;;;4953331;28;20031;-85
2023/12/07 07:14:47;;;;;;;10.32;3.97;;;;;;;;;;4951567;29;20042;-85
2023/12/07 07:17:13;;;;;;;12.00;5.10;;;;;;;;;;4951516;29;20031;-85
2023/12/07 07:19:38;;;;;;;12.85;5.10;;;;;;;;;;4954458;28;20339;-85
2023/12/07 07:22:04;;;;;;;11.60;5.20;;;;;;;;;;4952795;28;20101;-84
2023/12/07 07:24:29;;;;;;;11.27;4.82;;;;;;;;;;4946480;29;20031;-85
2023/12/07 07:26:55;;;;;;;12.02;5.50;;;;;;;;;;4956360;28;20027;-85
2023/12/07 07:29:20;;;;;;;10.00;4.50;;;;;;;;;;4958080;28;20019;-84
2023/12/07 07:31:45;;;;;;;12.90;4.47;;;;;;;;;;4959410;28;20053;-85
2023/12/07 07:34:10;;;;;;;13.15;4.35;;;;;;;;;;4955102;28;20078;-85
2023/12/07 07:36:35;;;;;;;12.13;5.63;;;;;;;;;;4956653;28;20038;-85
2023/12/07 07:39:01;;;;;;;15.02;4.93;;;;;;;;;;4951404;28;20038;-84
2023/12/07 07:41:26;;;;;;;11.63;4.90;;;;;;;;;;4951778;28;20031;-85
2023/12/07 07:43:51;;;;;;;10.85;5.43;;;;;;;;;;4940270;28;20032;-84
2023/12/07 07:46:16;;;;;;;12.43;5.00;;;;;;;;;;4960447;28;20034;-84
2023/12/07 07:48:42;;;;;;;14.57;5.43;;;;;;;;;;4948965;28;20137;-85
2023/12/07 07:51:07;;;;;;;15.53;5.67;;;;;;;;;;4950692;28;20023;-85
2023/12/07 07:53:32;;;;;;;14.60;5.77;;;;;;;;;;4941896;29;20016;-84
2023/12/07 07:55:57;;;;;;;13.13;5.13;;;;;;;;;;4957464;28;20035;-84
2023/12/07 07:58:23;;;;;;;16.37;6.57;;;;;;;;;;4952714;29;20027;-85
2023/12/07 08:00:49;;;;;;;15.13;5.90;;;;;;;;;;4955162;28;20090;-85
2023/12/07 08:03:14;;;;;;;14.50;6.43;;;;;;;;;;4956384;28;20434;-87
2023/12/07 08:05:39;;;;;;;18.80;7.40;;;;;;;;;;4964066;28;20024;-87
2023/12/07 08:08:04;;;;;;;18.40;6.73;;;;;;;;;;4954740;28;20121;-85
2023/12/07 08:10:30;;;;;;;14.20;6.40;;;;;;;;;;4952319;28;20115;-84
2023/12/07 08:12:55;;;;;;;13.03;5.60;;;;;;;;;;4954392;28;20030;-85
2023/12/07 08:15:21;;;;;;;13.53;5.80;;;;;;;;;;4951641;28;20038;-83
2023/12/07 08:17:47;;;;;;;12.50;5.33;;;;;;;;;;4947960;28;20034;-87
2023/12/07 08:20:15;;;;;;;13.50;5.73;;;;;;;;;;4939965;29;20035;-83
2023/12/07 08:22:43;;;;;;;17.57;6.23;;;;;;;;;;4950084;28;20027;-84
2023/12/07 08:25:10;;;;;;;13.57;6.13;;;;;;;;;;4956098;28;20100;-84
2023/12/07 08:27:38;;;;;;;13.67;5.50;;;;;;;;;;4954195;28;20115;-87
2023/12/07 08:30:04;;;;;;;15.57;5.80;;;;;;;;;;4956228;28;20031;-87
2023/12/07 08:32:29;;;;;;;15.20;5.60;;;;;;;;;;4955412;28;20359;-87
2023/12/07 08:34:55;;;;;;;17.00;6.53;;;;;;;;;;4950815;29;20015;-84
2023/12/07 08:37:20;;;;;;;16.97;7.13;;;;;;;;;;4954054;29;20394;-83
2023/12/07 08:39:45;;;;;;;17.90;6.93;;;;;;;;;;4953363;28;20027;-84
2023/12/07 08:42:11;;;;;;;21.57;7.53;;;;;;;;;;4953964;29;20034;-85
2023/12/07 08:44:36;;;;;;;20.60;7.63;;;;;;;;;;4953201;28;20098;-84
2023/12/07 08:47:02;;;;;;;17.43;6.33;;;;;;;;;;4954121;29;20023;-84
2023/12/07 08:49:27;;;;;;;14.20;5.90;;;;;;;;;;4953056;28;20039;-84
2023/12/07 08:51:53;;;;;;;16.03;6.47;;;;;;;;;;4953239;29;20027;-84
2023/12/07 08:54:18;;;;;;;19.37;6.97;;;;;;;;;;4953393;28;20027;-87
2023/12/07 08:56:44;;;;;;;13.47;5.97;;;;;;;;;;4955054;28;20023;-85
2023/12/07 08:59:09;;;;;;;12.50;5.40;;;;;;;;;;4953762;29;20370;-85
2023/12/07 09:01:35;;;;;;;14.20;6.57;;;;;;;;;;4953197;28;20135;-87
2023/12/07 09:04:00;;;;;;;13.60;5.70;;;;;;;;;;4953489;29;20163;-85
2023/12/07 09:06:25;;;;;;;14.67;5.80;;;;;;;;;;4954843;28;20019;-84
2023/12/07 09:08:50;;;;;;;10.90;4.40;;;;;;;;;;4953670;29;20046;-84
2023/12/07 09:11:16;;;;;;;12.00;5.37;;;;;;;;;;4953495;28;20364;-85
2023/12/07 09:13:41;;;;;;;12.07;4.82;;;;;;;;;;4953403;28;20363;-84
2023/12/07 09:16:06;;;;;;;11.57;5.17;;;;;;;;;;4940638;29;20027;-85
2023/12/07 09:18:33;;;;;;;11.57;4.83;;;;;;;;;;4953612;29;20419;-85
2023/12/07 09:21:00;;;;;;;13.07;5.93;;;;;;;;;;4953835;29;20363;-85
2023/12/07 09:23:25;;;;;;;14.85;5.13;;;;;;;;;;4954492;29;20364;-85
2023/12/07 09:25:51;;;;;;;13.52;5.30;;;;;;;;;;4953599;29;20030;-85
2023/12/07 09:28:16;;;;;;;11.70;4.55;;;;;;;;;;4948452;29;20410;-84
2023/12/07 09:30:41;;;;;;;13.63;5.07;;;;;;;;;;4953124;29;20058;-83
2023/12/07 09:33:07;;;;;;;10.95;4.32;;;;;;;;;;4952532;29;20043;-83
2023/12/07 09:35:34;;;;;;;11.43;5.00;;;;;;;;;;4954714;28;20024;-83
2023/12/07 09:37:59;;;;;;;9.40;3.47;;;;;;;;;;4952805;29;20114;-83
2023/12/07 09:40:25;;;;;;;12.25;5.22;;;;;;;;;;4952987;29;20114;-85
2023/12/07 09:42:51;;;;;;;11.07;4.53;;;;;;;;;;4953527;29;20430;-82
2023/12/07 09:45:18;;;;;;;11.73;4.70;;;;;;;;;;4952780;29;20212;-83
2023/12/07 09:47:47;;;;;;;15.23;6.32;;;;;;;;;;4954264;28;20046;-85
2023/12/07 09:50:15;;;;;;;9.63;3.88;;;;;;;;;;4953066;29;20023;-84
2023/12/07 09:52:40;;;;;;;10.98;4.85;;;;;;;;;;4954005;28;20031;-90
2023/12/07 09:55:06;;;;;;;14.43;4.85;;;;;;;;;;4953304;29;20418;-85
2023/12/07 09:57:32;;;;;;;16.08;4.78;;;;;;;;;;4953934;29;20027;-91
2023/12/07 09:59:58;;;;;;;12.10;4.95;;;;;;;;;;4954922;29;20114;-89
2023/12/07 10:02:24;;;;;;;11.95;4.40;;;;;;;;;;4954709;29;20474;-92
2023/12/07 10:05:04;;;;;;;8.82;4.28;;;;;;;;;;4954551;29;20055;-90
2023/12/07 10:07:37;;;;;;;10.45;4.68;;;;;;;;;;4955457;28;20023;-91
2023/12/07 10:10:03;;;;;;;13.35;5.13;;;;;;;;;;4944130;29;20023;-92
2023/12/07 10:12:28;;;;;;;8.18;3.72;;;;;;;;;;4954297;29;20019;-92
2023/12/07 10:14:53;;;;;;;8.30;4.03;;;;;;;;;;4954012;29;20019;-84
2023/12/07 10:17:19;;;;;;;12.23;4.97;;;;;;;;;;4951892;29;20027;-86
2023/12/07 10:19:44;;;;;;;9.63;4.53;;;;;;;;;;4952380;29;20031;-87
2023/12/07 10:22:15;;;;;;;12.90;4.05;;;;;;;;;;4953036;29;20039;-87
2023/12/07 10:24:41;;;;;;;10.20;4.47;;;;;;;;;;4952068;29;20023;-87
2023/12/07 10:27:06;;;;;;;7.63;4.28;;;;;;;;;;4953063;29;20122;-87
2023/12/07 10:29:35;;;;;;;11.73;4.13;;;;;;;;;;4951643;29;20015;-87
2023/12/07 10:32:04;;;;;;;7.40;3.17;;;;;;;;;;4951236;29;20339;-86
2023/12/07 10:34:30;;;;;;;14.45;5.13;;;;;;;;;;4951720;29;20011;-87
2023/12/07 10:36:57;;;;;;;10.60;4.20;;;;;;;;;;4953023;29;20034;-87
2023/12/07 10:39:24;;;;;;;11.07;4.57;;;;;;;;;;4952597;29;20386;-86
2023/12/07 10:41:51;;;;;;;9.13;4.35;;;;;;;;;;4952149;29;20027;-86
2023/12/07 10:44:17;;;;;;;8.65;4.30;;;;;;;;;;4952053;29;20103;-87
2023/12/07 10:46:43;;;;;;;10.38;4.60;;;;;;;;;;4952667;29;20023;-86
2023/12/07 10:49:10;;;;;;;11.30;4.70;;;;;;;;;;4953239;28;20098;-86
2023/12/07 10:51:45;;;;;;;11.77;4.70;;;;;;;;;;4953953;29;20462;-93
2023/12/07 10:54:15;;;;;;;8.13;3.95;;;;;;;;;;4949564;29;20023;-92
2023/12/07 10:56:44;;;;;;;10.52;4.25;;;;;;;;;;4946360;29;20061;-91
2023/12/07 10:59:12;;;;;;;13.80;4.72;;;;;;;;;;4953464;29;20016;-91
2023/12/07 11:01:42;;;;;;;15.52;4.47;;;;;;;;;;4953502;29;20023;-93
2023/12/07 11:04:09;;;;;;;11.82;4.07;;;;;;;;;;4955623;28;20019;-91
2023/12/07 11:06:35;;;;;;;8.68;4.05;;;;;;;;;;4957655;29;20019;-91
2023/12/07 11:09:02;;;;;;;10.27;4.05;;;;;;;;;;4957667;29;20019;-91
2023/12/07 11:11:34;;;;;;;11.20;4.22;;;;;;;;;;4957454;29;20078;-91
2023/12/07 11:14:02;;;;;;;8.88;3.67;;;;;;;;;;4955938;28;20028;-91
2023/12/07 11:16:31;;;;;;;10.90;3.15;;;;;;;;;;4950173;29;20122;-88
2023/12/07 11:18:57;;;;;;;10.30;3.90;;;;;;;;;;4956935;29;20063;-88
2023/12/07 11:21:23;;;;;;;9.20;3.83;;;;;;;;;;4956868;29;20027;-89
2023/12/07 11:23:48;;;;;;;11.40;4.07;;;;;;;;;;4943818;29;20431;-88
2023/12/07 11:26:13;;;;;;;12.07;4.70;;;;;;;;;;4956214;29;20023;-88
2023/12/07 11:28:39;;;;;;;11.65;3.90;;;;;;;;;;4956888;29;20023;-88
2023/12/07 11:31:07;;;;;;;6.93;3.30;;;;;;;;;;4957723;28;20102;-88
2023/12/07 11:33:33;;;;;;;7.85;3.72;;;;;;;;;;4956699;29;20117;-88
2023/12/07 11:36:05;;;;;;;9.90;4.18;;;;;;;;;;4956701;29;20058;-88
2023/12/07 11:38:31;;;;;;;11.70;4.05;;;;;;;;;;4956520;29;20051;-87
2023/12/07 11:40:56;;;;;;;11.10;3.85;;;;;;;;;;4950809;29;20046;-88
2023/12/07 11:43:40;;;;;;;10.90;4.28;;;;;;;;;;4956361;29;20115;-88
2023/12/07 11:46:09;;;;;;;9.70;4.28;;;;;;;;;;4955440;29;20099;-88
2023/12/07 11:48:34;;;;;;;9.23;3.45;;;;;;;;;;4949581;29;20026;-87
2023/12/07 11:51:01;;;;;;;8.50;4.07;;;;;;;;;;4956406;29;20473;-89
2023/12/07 11:53:30;;;;;;;11.30;4.68;;;;;;;;;;4957562;28;20133;-88
2023/12/07 11:55:59;;;;;;;15.00;5.07;;;;;;;;;;4956432;29;20030;-88
2023/12/07 11:58:30;;;;;;;11.43;4.78;;;;;;;;;;4956150;29;20031;-88
2023/12/07 12:00:56;;;;;;;16.25;4.97;;;;;;;;;;4956229;29;20019;-87
2023/12/07 12:03:22;;;;;;;13.87;5.53;;;;;;;;;;4956196;29;20027;-88
2023/12/07 12:05:47;;;;;;;12.90;5.07;;;;;;;;;;4955959;29;20016;-88
2023/12/07 12:08:13;;;;;;;8.67;3.90;;;;;;;;;;4957322;28;20031;-88
2023/12/07 12:10:38;;;;;;;12.48;4.93;;;;;;;;;;4957273;28;20370;-88
2023/12/07 12:13:04;;;;;;;12.57;5.22;;;;;;;;;;4956006;29;20074;-87
2023/12/07 12:15:29;;;;;;;12.30;4.45;;;;;;;;;;4954341;28;20030;-87
2023/12/07 12:17:58;;;;;;;9.53;4.30;;;;;;;;;;4949381;29;20023;-91
2023/12/07 12:20:27;;;;;;;11.70;5.13;;;;;;;;;;4954539;29;20023;-88
2023/12/07 12:22:55;;;;;;;10.23;4.67;;;;;;;;;;4954056;29;20023;-88
2023/12/07 12:25:23;;;;;;;13.00;3.77;;;;;;;;;;4948764;29;20038;-88
2023/12/07 12:27:49;;;;;;;9.73;4.05;;;;;;;;;;4955037;29;20030;-90
2023/12/07 12:30:15;;;;;;;10.18;4.57;;;;;;;;;;4955365;29;20378;-87
2023/12/07 12:32:44;;;;;;;7.90;3.25;;;;;;;;;;4955635;29;20382;-87
2023/12/07 12:35:09;;;;;;;8.35;3.20;;;;;;;;;;4955420;29;20019;-88
2023/12/07 12:37:37;;;;;;;12.20;3.85;;;;;;;;;;4955243;29;20042;-88
2023/12/07 12:40:06;;;;;;;7.80;3.70;;;;;;;;;;4954975;29;20019;-88
2023/12/07 12:42:32;;;;;;;11.75;4.53;;;;;;;;;;4954902;29;20394;-88
2023/12/07 12:44:57;;;;;;;8.68;4.07;;;;;;;;;;4956333;28;20031;-87
2023/12/07 12:47:23;;;;;;;8.57;3.42;;;;;;;;;;4955205;29;20028;-88
2023/12/07 12:49:48;;;;;;;9.60;3.78;;;;;;;;;;4955339;29;20106;-88
2023/12/07 12:52:16;;;;;;;10.35;4.18;;;;;;;;;;4954996;29;20385;-88
2023/12/07 12:54:45;;;;;;;12.45;4.80;;;;;;;;;;4955188;29;20043;-89
2023/12/07 12:57:10;;;;;;;12.02;4.47;;;;;;;;;;4955074;29;20387;-88
2023/12/07 12:59:36;;;;;;;9.73;4.40;;;;;;;;;;4954982;29;20031;-88
2023/12/07 13:02:04;;;;;;;12.60;4.63;;;;;;;;;;4954833;29;20023;-87
2023/12/07 13:04:30;;;;;;;15.88;5.07;;;;;;;;;;4970189;28;20660;-87
2023/12/07 13:06:55;;;;;;;11.10;4.30;;;;;;;;;;4954616;29;20093;-88
2023/12/07 13:09:21;;;;;;;7.32;3.50;;;;;;;;;;4955676;29;20015;-87
2023/12/07 13:11:47;;;;;;;8.43;3.63;;;;;;;;;;4954558;29;20159;-88
2023/12/07 13:14:12;;;;;;;9.57;3.72;;;;;;;;;;4953802;29;20083;-88
2023/12/07 13:16:37;;;;;;;6.93;3.50;;;;;;;;;;4955536;28;20019;-87
2023/12/07 13:19:02;;;;;;;9.35;3.90;;;;;;;;;;4954284;29;20019;-88
2023/12/07 13:21:28;;;;;;;8.13;3.55;;;;;;;;;;4954444;29;20161;-88
2023/12/07 13:23:53;;;;;;;8.27;4.00;;;;;;;;;;4955322;29;20031;-87
2023/12/07 13:26:19;;;;;;;10.63;4.20;;;;;;;;;;4953557;28;20038;-88
2023/12/07 13:28:44;;;;;;;9.45;3.83;;;;;;;;;;4955196;29;20035;-93
2023/12/07 13:31:09;;;;;;;12.73;3.88;;;;;;;;;;4955150;29;20027;-93
2023/12/07 13:33:34;;;;;;;12.65;4.25;;;;;;;;;;4954316;29;20031;-86
2023/12/07 13:36:01;;;;;;;8.05;3.95;;;;;;;;;;4953779;29;20038;-87
2023/12/07 13:38:29;;;;;;;8.77;3.78;;;;;;;;;;4953902;29;20205;-87
2023/12/07 13:40:55;;;;;;;10.73;3.78;;;;;;;;;;4953699;29;20034;-86
2023/12/07 13:43:22;;;;;;;10.55;3.75;;;;;;;;;;4953823;29;20038;-87
2023/12/07 13:45:47;;;;;;;10.40;4.25;;;;;;;;;;4953512;29;20027;-86
2023/12/07 13:48:13;;;;;;;7.55;3.03;;;;;;;;;;4949168;29;20377;-87
2023/12/07 13:50:38;;;;;;;8.23;3.53;;;;;;;;;;4944669;29;20034;-87
2023/12/07 13:53:04;;;;;;;7.22;3.47;;;;;;;;;;4953339;29;20019;-87
2023/12/07 13:55:29;;;;;;;10.70;3.83;;;;;;;;;;4955182;28;20091;-86
2023/12/07 13:57:56;;;;;;;10.52;3.70;;;;;;;;;;4953467;29;20033;-86
2023/12/07 14:00:22;;;;;;;9.25;3.28;;;;;;;;;;4953636;29;20027;-87
2023/12/07 14:02:47;;;;;;;8.13;3.83;;;;;;;;;;4953220;29;20027;-86
2023/12/07 14:05:12;;;;;;;10.75;4.07;;;;;;;;;;4953159;29;20034;-87
2023/12/07 14:07:37;;;;;;;7.45;3.35;;;;;;;;;;4953393;29;20134;-87
2023/12/07 14:10:03;;;;;;;8.20;3.25;;;;;;;;;;4953278;29;20082;-86
2023/12/07 14:12:28;;;;;;;6.07;3.05;;;;;;;;;;4952895;29;20102;-87
2023/12/07 14:14:55;;;;;;;7.47;3.22;;;;;;;;;;4952881;29;20031;-86
2023/12/07 14:17:22;;;;;;;10.25;3.53;;;;;;;;;;4953889;29;20114;-93
2023/12/07 14:19:48;;;;;;;7.07;3.35;;;;;;;;;;4954190;29;20505;-86
2023/12/07 14:22:13;;;;;;;7.78;3.67;;;;;;;;;;4953242;29;20034;-86
2023/12/07 14:24:39;;;;;;;9.20;3.75;;;;;;;;;;4952933;29;20011;-87
2023/12/07 14:27:05;;;;;;;10.68;3.65;;;;;;;;;;4941371;29;20039;-87
2023/12/07 14:29:32;;;;;;;6.88;3.13;;;;;;;;;;4951436;29;20015;-87
2023/12/07 14:31:57;;;;;;;7.95;2.75;;;;;;;;;;4953081;29;20023;-87
2023/12/07 14:34:23;;;;;;;7.93;3.20;;;;;;;;;;4952699;29;20018;-86
2023/12/07 14:36:48;;;;;;;6.68;3.28;;;;;;;;;;4952741;29;20027;-87
2023/12/07 14:39:16;;;;;;;9.68;3.83;;;;;;;;;;4953357;28;20025;-87
2023/12/07 14:41:43;;;;;;;7.97;3.72;;;;;;;;;;4952936;29;20023;-86
2023/12/07 14:44:08;;;;;;;7.25;3.40;;;;;;;;;;4952532;29;20118;-86
2023/12/07 14:46:33;;;;;;;8.37;3.87;;;;;;;;;;4953794;29;20106;-87
2023/12/07 14:48:58;;;;;;;9.55;4.18;;;;;;;;;;4952946;29;20022;-86
2023/12/07 14:51:24;;;;;;;9.52;3.92;;;;;;;;;;4954357;29;20026;-87
2023/12/07 14:53:49;;;;;;;8.67;3.80;;;;;;;;;;4953918;29;20027;-86
2023/12/07 14:56:14;;;;;;;7.23;3.87;;;;;;;;;;4952843;29;20034;-88
2023/12/07 14:58:40;;;;;;;9.57;4.27;;;;;;;;;;4952696;29;20458;-87
2023/12/07 15:01:05;;;;;;;10.20;3.73;;;;;;;;;;4941616;29;20023;-87
2023/12/07 15:03:31;;;;;;;18.17;4.25;;;;;;;;;;4946910;29;20424;-87
2023/12/07 15:05:56;;;;;;;9.90;4.65;;;;;;;;;;4943455;29;20030;-87
2023/12/07 15:08:21;;;;;;;8.70;3.97;;;;;;;;;;4952579;29;20038;-87
2023/12/07 15:10:46;;;;;;;11.70;4.00;;;;;;;;;;4945218;29;20030;-87
2023/12/07 15:13:11;;;;;;;10.95;4.53;;;;;;;;;;4946978;29;20031;-87
2023/12/07 15:15:40;;;;;;;15.77;5.10;;;;;;;;;;4952835;29;20020;-88
2023/12/07 15:18:05;;;;;;;9.10;4.67;;;;;;;;;;4944333;29;20024;-87
2023/12/07 15:20:30;;;;;;;10.90;4.00;;;;;;;;;;4946936;29;20367;-86
2023/12/07 15:22:56;;;;;;;9.63;3.80;;;;;;;;;;4952030;29;20063;-88
2023/12/07 15:25:22;;;;;;;9.00;4.38;;;;;;;;;;4952491;29;20077;-86
2023/12/07 15:27:48;;;;;;;9.57;4.30;;;;;;;;;;4943742;29;20430;-87
2023/12/07 15:30:13;;;;;;;12.23;3.67;;;;;;;;;;4952590;29;20023;-88
2023/12/07 15:32:38;;;;;;;7.17;3.87;;;;;;;;;;4952734;29;20362;-88
2023/12/07 15:35:03;;;;;;;10.50;4.73;;;;;;;;;;4952706;29;20031;-88
2023/12/07 15:37:29;;;;;;;9.57;3.87;;;;;;;;;;4954258;28;20027;-91
2023/12/07 15:39:54;;;;;;;12.35;4.57;;;;;;;;;;4948457;29;20114;-92
2023/12/07 15:42:19;;;;;;;9.98;4.60;;;;;;;;;;4949755;29;20046;-92
2023/12/07 15:44:44;;;;;;;9.30;4.50;;;;;;;;;;4953043;29;20494;-89
2023/12/07 15:47:10;;;;;;;12.40;4.40;;;;;;;;;;4952530;28;20415;-91
2023/12/07 15:49:35;;;;;;;11.15;4.13;;;;;;;;;;4954805;28;20023;-89
2023/12/07 15:52:00;;;;;;;15.05;4.57;;;;;;;;;;4956042;29;20019;-89
2023/12/07 15:54:26;;;;;;;10.03;4.67;;;;;;;;;;4955929;29;20488;-89
2023/12/07 15:56:51;;;;;;;12.73;4.47;;;;;;;;;;4955998;29;20026;-89
2023/12/07 15:59:16;;;;;;;10.35;4.90;;;;;;;;;;4955087;29;20516;-89
2023/12/07 16:01:42;;;;;;;15.13;5.10;;;;;;;;;;4955871;29;20504;-88
2023/12/07 16:04:07;;;;;;;9.73;4.45;;;;;;;;;;4954972;29;20109;-88
2023/12/07 16:06:32;;;;;;;14.63;4.80;;;;;;;;;;4955426;29;20073;-88
2023/12/07 16:08:58;;;;;;;7.97;4.03;;;;;;;;;;4956274;29;20584;-89
2023/12/07 16:11:23;;;;;;;17.67;5.27;;;;;;;;;;4955385;29;20667;-89
2023/12/07 16:13:49;;;;;;;14.50;5.32;;;;;;;;;;4955100;29;20082;-89
2023/12/07 16:16:14;;;;;;;11.60;4.72;;;;;;;;;;4955941;29;20031;-89
2023/12/07 16:18:39;;;;;;;8.25;3.97;;;;;;;;;;4949615;29;20114;-89
2023/12/07 16:21:05;;;;;;;9.52;4.18;;;;;;;;;;4950535;29;20066;-89
2023/12/07 16:23:30;;;;;;;13.60;3.85;;;;;;;;;;4946766;29;20019;-88
2023/12/07 16:25:56;;;;;;;9.03;3.67;;;;;;;;;;4951433;29;20371;-89
2023/12/07 16:28:21;;;;;;;7.45;3.40;;;;;;;;;;4954661;29;20023;-89
2023/12/07 16:30:46;;;;;;;7.55;4.10;;;;;;;;;;4942111;29;20031;-89
2023/12/07 16:33:11;;;;;;;9.45;3.72;;;;;;;;;;4955364;29;20301;-89
2023/12/07 16:35:36;;;;;;;8.98;4.03;;;;;;;;;;4955163;29;20486;-89
2023/12/07 16:38:02;;;;;;;9.52;3.95;;;;;;;;;;4954926;29;20023;-89
2023/12/07 16:40:27;;;;;;;9.52;4.07;;;;;;;;;;4945201;29;20027;-89
2023/12/07 16:42:53;;;;;;;10.45;3.38;;;;;;;;;;4949388;29;20042;-89
2023/12/07 16:45:19;;;;;;;11.88;4.10;;;;;;;;;;4936013;29;20497;-88
2023/12/07 16:47:47;;;;;;;9.47;3.57;;;;;;;;;;4949462;29;20015;-89
2023/12/07 16:50:12;;;;;;;10.82;4.15;;;;;;;;;;4954955;29;20439;-89
2023/12/07 16:52:38;;;;;;;14.17;4.93;;;;;;;;;;4955219;29;20016;-89
2023/12/07 16:55:05;;;;;;;8.07;3.78;;;;;;;;;;4941497;29;20011;-89
2023/12/07 16:57:30;;;;;;;8.33;3.90;;;;;;;;;;4954868;29;20035;-89
2023/12/07 16:59:56;;;;;;;11.10;3.80;;;;;;;;;;4954667;29;20023;-89
2023/12/07 17:02:23;;;;;;;7.07;3.50;;;;;;;;;;4955546;28;20028;-89
2023/12/07 17:04:48;;;;;;;9.77;3.97;;;;;;;;;;4954560;29;20174;-89
2023/12/07 17:07:13;;;;;;;8.80;3.55;;;;;;;;;;4954662;29;20126;-89
2023/12/07 17:09:38;;;;;;;11.73;4.22;;;;;;;;;;4947529;29;20110;-89
2023/12/07 17:12:04;;;;;;;10.50;4.07;;;;;;;;;;4954412;29;20023;-89
2023/12/07 17:14:29;;;;;;;13.87;4.80;;;;;;;;;;4954163;29;20034;-88
2023/12/07 17:16:54;;;;;;;9.27;4.50;;;;;;;;;;4954213;29;20039;-89
2023/12/07 17:19:19;;;;;;;10.07;3.70;;;;;;;;;;4953770;29;20027;-89
2023/12/07 17:21:45;;;;;;;8.13;4.13;;;;;;;;;;4954049;29;20118;-89
2023/12/07 17:24:10;;;;;;;8.27;3.63;;;;;;;;;;4954027;29;20102;-89
2023/12/07 17:26:37;;;;;;;11.37;4.43;;;;;;;;;;4954080;29;20045;-89
2023/12/07 17:29:02;;;;;;;11.30;4.87;;;;;;;;;;4953267;29;20030;-89
2023/12/07 17:31:28;;;;;;;11.37;4.70;;;;;;;;;;4944568;29;20054;-89
2023/12/07 17:33:53;;;;;;;14.97;4.83;;;;;;;;;;4954235;29;20026;-89
2023/12/07 17:36:18;;;;;;;9.03;3.93;;;;;;;;;;4953830;29;20032;-89
2023/12/07 17:38:44;;;;;;;13.37;4.47;;;;;;;;;;4955362;29;20106;-89
2023/12/07 17:41:09;;;;;;;10.10;4.50;;;;;;;;;;4952464;29;20020;-89
2023/12/07 17:43:34;;;;;;;10.50;4.90;;;;;;;;;;4955449;29;20423;-89
2023/12/07 17:46:01;;;;;;;9.37;4.47;;;;;;;;;;4954185;29;20455;-89
2023/12/07 17:48:26;;;;;;;9.23;4.13;;;;;;;;;;4953560;29;20027;-89
2023/12/07 17:50:51;;;;;;;10.73;4.07;;;;;;;;;;4953792;29;20129;-89
2023/12/07 17:53:17;;;;;;;11.07;4.37;;;;;;;;;;4953475;29;20027;-89
2023/12/07 17:55:42;;;;;;;10.77;4.10;;;;;;;;;;4953634;29;20122;-89
2023/12/07 17:58:07;;;;;;;8.53;4.17;;;;;;;;;;4953171;29;20023;-89
2023/12/07 18:00:32;;;;;;;12.23;4.30;;;;;;;;;;4948013;29;20030;-89
2023/12/07 18:02:57;;;;;;;8.30;3.70;;;;;;;;;;4953510;29;20042;-89
2023/12/07 18:05:23;;;;;;;8.13;3.57;;;;;;;;;;4953280;29;20039;-89
2023/12/07 18:07:48;;;;;;;10.67;4.27;;;;;;;;;;4941944;29;20032;-89
2023/12/07 18:10:18;;;;;;;14.03;5.17;;;;;;;;;;4950728;29;20089;-88
2023/12/07 18:12:43;;;;;;;8.40;4.07;;;;;;;;;;4942777;29;20032;-89
2023/12/07 18:15:09;;;;;;;8.63;4.33;;;;;;;;;;4948843;29;20178;-88
2023/12/07 18:17:34;;;;;;;8.27;4.10;;;;;;;;;;4953064;29;20023;-88
2023/12/07 18:19:59;;;;;;;8.90;3.97;;;;;;;;;;4947895;29;20533;-89
2023/12/07 18:22:25;;;;;;;11.20;4.93;;;;;;;;;;4953304;29;20450;-89
2023/12/07 18:24:51;;;;;;;11.57;3.90;;;;;;;;;;4952930;29;20078;-89
2023/12/07 18:27:16;;;;;;;7.93;3.50;;;;;;;;;;4952941;29;20054;-89
2023/12/07 18:29:42;;;;;;;10.03;4.17;;;;;;;;;;4946705;29;20075;-90
2023/12/07 18:32:07;;;;;;;6.60;3.07;;;;;;;;;;4942938;29;20114;-91
2023/12/07 18:34:33;;;;;;;7.18;3.22;;;;;;;;;;4946124;29;20050;-90
2023/12/07 18:36:58;;;;;;;6.97;3.28;;;;;;;;;;4947610;29;20527;-89
2023/12/07 18:39:23;;;;;;;7.68;3.45;;;;;;;;;;4952259;29;20027;-90
2023/12/07 18:41:48;;;;;;;7.93;3.47;;;;;;;;;;4952599;29;20039;-89
2023/12/07 18:44:13;;;;;;;9.18;3.53;;;;;;;;;;4952693;29;20035;-89
2023/12/07 18:46:39;;;;;;;8.10;3.17;;;;;;;;;;4952172;29;20040;-86
2023/12/07 18:49:07;;;;;;;6.63;2.95;;;;;;;;;;4940535;29;20036;-88
2023/12/07 18:51:32;;;;;;;8.18;3.75;;;;;;;;;;4951014;29;20059;-91
2023/12/07 18:53:58;;;;;;;5.93;2.97;;;;;;;;;;4954444;29;20521;-92
2023/12/07 18:56:23;;;;;;;6.65;3.00;;;;;;;;;;4951562;29;20050;-92
2023/12/07 18:58:48;;;;;;;6.00;2.65;;;;;;;;;;4945724;29;20332;-87
2023/12/07 19:01:13;;;;;;;7.15;3.00;;;;;;;;;;4953141;29;20387;-87
2023/12/07 19:03:39;;;;;;;9.55;3.47;;;;;;;;;;4946605;29;20027;-87
2023/12/07 19:06:05;;;;;;;5.20;2.72;;;;;;;;;;4949023;29;20020;-87
2023/12/07 19:08:30;;;;;;;6.30;3.20;;;;;;;;;;4941908;29;20497;-88
2023/12/07 19:10:56;;;;;;;4.22;1.77;;;;;;;;;;4947524;29;20024;-87
2023/12/07 19:13:21;;;;;;;6.78;3.10;;;;;;;;;;4947370;29;20086;-87
2023/12/07 19:15:46;;;;;;;10.52;2.85;;;;;;;;;;4951178;29;20031;-87
2023/12/07 19:18:11;;;;;;;10.35;3.10;;;;;;;;;;4959164;28;20040;-87
2023/12/07 19:20:37;;;;;;;6.10;2.85;;;;;;;;;;4946784;29;20055;-86
2023/12/07 19:23:02;;;;;;;8.07;3.58;;;;;;;;;;4951554;29;20023;-87
2023/12/07 19:25:27;;;;;;;4.40;1.73;;;;;;;;;;4947530;29;20031;-87
2023/12/07 19:27:52;;;;;;;6.30;3.33;;;;;;;;;;4955164;29;20633;-87
2023/12/07 19:30:18;;;;;;;8.23;2.70;;;;;;;;;;4951750;29;20463;-83
2023/12/07 19:32:43;;;;;;;7.95;2.75;;;;;;;;;;4952501;29;20015;-86
2023/12/07 19:35:08;;;;;;;11.90;2.28;;;;;;;;;;4945975;29;20063;-85
2023/12/07 19:37:36;;;;;;;7.97;3.03;;;;;;;;;;4945890;29;20210;-85
2023/12/07 19:40:02;;;;;;;4.40;2.38;;;;;;;;;;4952763;29;20042;-85
2023/12/07 19:42:27;;;;;;;6.78;3.08;;;;;;;;;;4949775;29;20031;-85
2023/12/07 19:44:52;;;;;;;5.00;2.45;;;;;;;;;;4954657;29;20031;-85
2023/12/07 19:47:18;;;;;;;6.78;2.80;;;;;;;;;;4955307;28;20042;-84
2023/12/07 19:49:43;;;;;;;8.10;2.92;;;;;;;;;;4955666;28;20027;-89
2023/12/07 19:52:09;;;;;;;5.93;2.60;;;;;;;;;;4955360;29;20031;-87
2023/12/07 19:54:35;;;;;;;8.88;2.50;;;;;;;;;;4954932;29;20367;-87
2023/12/07 19:57:01;;;;;;;5.22;2.55;;;;;;;;;;4955169;28;20023;-89
2023/12/07 19:59:27;;;;;;;6.90;2.67;;;;;;;;;;4954999;29;20112;-88
2023/12/07 20:01:52;;;;;;;6.40;2.60;;;;;;;;;;4955140;28;20216;-88
2023/12/07 20:04:17;;;;;;;7.78;3.22;;;;;;;;;;4954492;29;20027;-89
2023/12/07 20:06:43;;;;;;;7.10;2.45;;;;;;;;;;4954824;28;20039;-88
2023/12/07 20:09:08;;;;;;;6.18;2.13;;;;;;;;;;4956290;29;20023;-88
2023/12/07 20:11:33;;;;;;;7.22;2.92;;;;;;;;;;4955395;28;20019;-88
2023/12/07 20:13:59;;;;;;;7.22;2.95;;;;;;;;;;4952052;28;20398;-87
2023/12/07 20:16:24;;;;;;;6.85;3.03;;;;;;;;;;4944496;29;20023;-87
2023/12/07 20:18:49;;;;;;;6.35;2.47;;;;;;;;;;4954584;29;20517;-88
2023/12/07 20:21:14;;;;;;;5.07;2.17;;;;;;;;;;4955015;29;20054;-87
2023/12/07 20:23:42;;;;;;;6.32;2.10;;;;;;;;;;4954970;29;20111;-87
2023/12/07 20:26:17;;;;;;;5.15;2.13;;;;;;;;;;4955156;29;20027;-88
2023/12/07 20:28:43;;;;;;;7.22;2.70;;;;;;;;;;4954454;29;20035;-88
2023/12/07 20:31:08;;;;;;;6.88;2.97;;;;;;;;;;4955201;29;20167;-88
2023/12/07 20:33:34;;;;;;;4.85;2.47;;;;;;;;;;4954599;29;20084;-88
2023/12/07 20:35:59;;;;;;;5.95;2.40;;;;;;;;;;4953506;28;20528;-88
2023/12/07 20:38:24;;;;;;;4.78;2.42;;;;;;;;;;4954674;29;20410;-88
2023/12/07 20:40:50;;;;;;;6.93;2.85;;;;;;;;;;4955987;28;20028;-88